createdAt,value
2023-04-29T00:00:25.704Z,20.90
2023-04-29T00:03:14.482Z,21.20
2023-04-29T00:05:43.024Z,20.30
2023-04-29T00:08:12.156Z,23.90
2023-04-29T00:10:41.270Z,24.40
2023-04-29T00:13:10.609Z,22.20
2023-04-29T00:15:41.563Z,23.10
2023-04-29T00:18:11.172Z,22.40
2023-04-29T00:20:40.314Z,21.40
2023-04-29T00:23:09.050Z,23.60
2023-04-29T00:25:38.803Z,24.90
2023-04-29T00:28:07.549Z,22.70
2023-04-29T00:30:36.401Z,23.20
2023-04-29T00:33:11.053Z,27.40
2023-04-29T00:35:40.026Z,25.30
2023-04-29T00:38:08.913Z,20.10
2023-04-29T00:40:37.590Z,20.70
2023-04-29T00:43:05.972Z,24.30
2023-04-29T00:45:35.085Z,23.00
2023-04-29T00:48:04.776Z,21.60
2023-04-29T00:50:33.596Z,24.40
2023-04-29T00:53:02.579Z,23.80
2023-04-29T00:55:33.955Z,24.60
2023-04-29T00:58:04.451Z,25.90
2023-04-29T01:00:33.737Z,24.30
2023-04-29T01:03:02.277Z,24.00
2023-04-29T01:05:31.357Z,26.50
2023-04-29T01:08:07.330Z,23.40
2023-04-29T01:10:45.026Z,24.20
2023-04-29T01:13:38.418Z,26.90
2023-04-29T01:16:13.538Z,27.00
2023-04-29T01:18:46.659Z,24.80
2023-04-29T01:21:15.989Z,26.00
2023-04-29T01:23:46.227Z,29.30
2023-04-29T01:26:14.984Z,22.30
2023-04-29T01:28:52.489Z,25.70
2023-04-29T01:31:56.236Z,23.00
2023-04-29T01:35:02.686Z,23.90
2023-04-29T01:37:42.452Z,24.30
2023-04-29T01:40:14.019Z,36.50
2023-04-29T01:42:46.204Z,24.40
2023-04-29T01:45:18.873Z,26.10
2023-04-29T01:47:48.151Z,21.90
2023-04-29T01:50:16.513Z,23.50
2023-04-29T01:52:45.597Z,26.30
2023-04-29T01:55:13.991Z,27.20
2023-04-29T01:57:42.333Z,27.90
2023-04-29T02:00:12.188Z,22.50
2023-04-29T02:02:41.837Z,24.60
2023-04-29T02:05:10.468Z,24.90
2023-04-29T02:07:38.960Z,24.60
2023-04-29T02:10:08.096Z,27.60
2023-04-29T02:12:36.582Z,23.30
2023-04-29T02:15:05.520Z,26.50
2023-04-29T02:17:36.977Z,25.10
2023-04-29T02:20:07.143Z,28.80
2023-04-29T02:22:36.233Z,26.40
2023-04-29T02:25:05.327Z,29.80
2023-04-29T02:27:34.694Z,32.40
2023-04-29T02:30:05.172Z,27.50
2023-04-29T02:33:37.074Z,29.30
2023-04-29T02:36:05.867Z,27.40
2023-04-29T02:38:34.454Z,28.70
2023-04-29T02:41:02.980Z,23.80
2023-04-29T02:43:31.587Z,24.90
2023-04-29T02:46:00.969Z,31.60
2023-04-29T02:48:29.903Z,27.00
2023-04-29T02:50:58.940Z,25.10
2023-04-29T02:53:27.313Z,26.70
2023-04-29T02:55:56.223Z,25.30
2023-04-29T02:58:25.068Z,26.30
2023-04-29T03:00:54.155Z,28.00
2023-04-29T03:03:24.027Z,22.10
2023-04-29T03:05:53.226Z,27.10
2023-04-29T03:08:22.223Z,25.40
2023-04-29T03:10:50.593Z,25.30
2023-04-29T03:13:19.080Z,26.20
2023-04-29T03:15:47.444Z,26.60
2023-04-29T03:18:15.844Z,23.70
2023-04-29T03:20:44.183Z,23.80
2023-04-29T03:23:13.080Z,32.30
2023-04-29T03:25:42.245Z,26.00
2023-04-29T03:28:10.598Z,25.40
2023-04-29T03:30:39.116Z,27.00
2023-04-29T03:36:57.830Z,25.40
2023-04-29T03:39:26.285Z,24.80
2023-04-29T03:41:54.708Z,25.00
2023-04-29T03:44:23.671Z,23.60
2023-04-29T03:46:52.390Z,24.30
2023-04-29T03:49:20.835Z,25.90
2023-04-29T03:51:49.421Z,25.90
2023-04-29T03:54:18.345Z,25.30
2023-04-29T03:56:47.047Z,24.20
2023-04-29T03:59:16.252Z,23.10
2023-04-29T04:01:44.610Z,22.20
2023-04-29T04:04:14.065Z,23.50
2023-04-29T04:06:44.216Z,25.90
2023-04-29T04:09:13.031Z,24.80
2023-04-29T04:11:42.552Z,26.00
2023-04-29T04:14:11.088Z,24.10
2023-04-29T04:16:39.624Z,22.00
2023-04-29T04:19:08.106Z,27.20
2023-04-29T04:21:36.580Z,26.90
2023-04-29T04:24:05.622Z,22.90
2023-04-29T04:26:34.723Z,24.40
2023-04-29T04:29:04.333Z,24.80
2023-04-29T04:31:32.783Z,22.00
2023-04-29T04:34:42.417Z,23.10
2023-04-29T04:37:10.799Z,21.70
2023-04-29T04:39:40.005Z,20.40
2023-04-29T04:42:08.936Z,19.30
2023-04-29T04:44:37.977Z,22.40
2023-04-29T04:47:06.987Z,20.90
2023-04-29T04:49:36.205Z,21.80
2023-04-29T04:52:05.568Z,19.20
2023-04-29T04:54:34.111Z,19.40
2023-04-29T04:57:06.423Z,24.20
2023-04-29T04:59:34.762Z,21.30
2023-04-29T05:02:03.795Z,24.40
2023-04-29T05:04:32.412Z,19.10
2023-04-29T05:07:01.402Z,19.30
2023-04-29T05:09:29.735Z,23.20
2023-04-29T05:11:59.609Z,19.00
2023-04-29T05:14:28.718Z,25.40
2023-04-29T05:17:00.584Z,19.80
2023-04-29T05:19:29.741Z,20.70
2023-04-29T05:21:58.170Z,20.90
2023-04-29T05:24:26.671Z,22.60
2023-04-29T05:26:55.034Z,18.50
2023-04-29T05:29:23.752Z,18.90
2023-04-29T05:31:52.445Z,21.60
2023-04-29T05:34:20.986Z,18.50
2023-04-29T05:36:49.340Z,19.60
2023-04-29T05:39:18.340Z,20.30
2023-04-29T05:41:46.715Z,19.80
2023-04-29T05:44:15.156Z,21.30
2023-04-29T05:46:43.568Z,19.10
2023-04-29T05:49:12.112Z,15.80
2023-04-29T05:51:41.019Z,19.10
2023-04-29T05:54:09.351Z,16.10
2023-04-29T05:56:37.734Z,18.30
2023-04-29T05:59:05.974Z,21.70
2023-04-29T06:01:34.642Z,19.50
2023-04-29T06:04:04.255Z,18.50
2023-04-29T06:06:33.112Z,18.00
2023-04-29T06:09:01.991Z,19.50
2023-04-29T06:11:31.893Z,17.60
2023-04-29T06:14:00.239Z,16.40
2023-04-29T06:16:29.196Z,16.00
2023-04-29T06:18:57.686Z,21.10
2023-04-29T06:21:26.003Z,14.20
2023-04-29T06:23:55.020Z,17.70
2023-04-29T06:26:24.476Z,16.20
2023-04-29T06:28:55.334Z,15.10
2023-04-29T06:31:23.752Z,14.50
2023-04-29T06:33:53.725Z,16.80
2023-04-29T06:36:22.551Z,16.60
2023-04-29T06:38:51.507Z,14.20
2023-04-29T06:41:19.925Z,15.70
2023-04-29T06:43:49.108Z,17.10
2023-04-29T06:46:17.550Z,18.80
2023-04-29T06:48:46.317Z,19.60
2023-04-29T06:51:14.652Z,18.30
2023-04-29T06:53:43.502Z,16.40
2023-04-29T06:56:12.164Z,17.60
2023-04-29T06:58:40.492Z,14.90
2023-04-29T07:01:09.763Z,16.00
2023-04-29T07:03:38.744Z,13.80
2023-04-29T07:06:07.313Z,14.80
2023-04-29T07:08:35.581Z,13.50
2023-04-29T07:11:04.316Z,15.90
2023-04-29T07:13:32.701Z,17.90
2023-04-29T07:16:00.904Z,15.40
2023-04-29T07:18:29.512Z,16.80
2023-04-29T07:21:02.500Z,12.40
2023-04-29T07:23:30.862Z,16.70
2023-04-29T07:25:59.268Z,15.10
2023-04-29T07:28:27.546Z,15.00
2023-04-29T07:30:55.785Z,20.10
2023-04-29T07:33:25.133Z,18.80
2023-04-29T07:35:53.576Z,13.70
2023-04-29T07:38:22.392Z,14.60
2023-04-29T07:40:50.737Z,15.30
2023-04-29T07:43:18.952Z,17.50
2023-04-29T07:45:47.477Z,14.30
2023-04-29T07:48:16.002Z,15.20
2023-04-29T07:50:44.766Z,17.80
2023-04-29T07:53:13.347Z,18.90
2023-04-29T07:55:41.624Z,12.80
2023-04-29T07:58:09.931Z,15.80
2023-04-29T08:00:38.819Z,18.40
2023-04-29T08:03:07.181Z,13.70
2023-04-29T08:05:36.794Z,16.50
2023-04-29T08:08:06.297Z,16.70
2023-04-29T08:10:41.214Z,24.00
2023-04-29T08:13:09.610Z,13.30
2023-04-29T08:15:37.859Z,20.10
2023-04-29T08:18:06.359Z,16.00
2023-04-29T08:20:34.730Z,15.10
2023-04-29T08:23:03.515Z,15.30
2023-04-29T08:25:31.719Z,18.50
2023-04-29T08:28:00.641Z,14.00
2023-04-29T08:30:28.916Z,14.10
2023-04-29T08:32:57.275Z,15.20
2023-04-29T08:35:26.572Z,18.50
2023-04-29T08:37:54.903Z,15.50
2023-04-29T08:40:23.139Z,12.40
2023-04-29T08:42:53.485Z,15.60
2023-04-29T08:45:25.243Z,13.90
2023-04-29T08:47:55.529Z,13.40
2023-04-29T08:50:24.906Z,15.40
2023-04-29T08:52:53.652Z,14.10
2023-04-29T08:55:22.631Z,12.40
2023-04-29T08:57:54.236Z,16.30
2023-04-29T09:00:25.073Z,13.30
2023-04-29T09:02:57.982Z,16.40
2023-04-29T09:05:29.012Z,15.20
2023-04-29T09:08:03.682Z,15.90
2023-04-29T09:10:33.640Z,14.70
2023-04-29T09:13:02.009Z,13.50
2023-04-29T09:15:30.343Z,13.80
2023-04-29T09:17:58.729Z,14.50
2023-04-29T09:20:28.415Z,12.40
2023-04-29T09:23:02.221Z,12.10
2023-04-29T09:25:31.872Z,14.80
2023-04-29T09:28:16.164Z,12.50
2023-04-29T09:30:47.722Z,10.90
2023-04-29T09:33:17.601Z,12.80
2023-04-29T09:35:47.433Z,12.40
2023-04-29T09:38:17.176Z,9.40
2023-04-29T09:40:57.598Z,9.50
2023-04-29T09:43:27.610Z,10.90
2023-04-29T09:45:56.198Z,22.90
2023-04-29T09:48:34.129Z,11.30
2023-04-29T09:51:06.120Z,11.40
2023-04-29T09:53:38.318Z,10.70
2023-04-29T09:56:07.646Z,9.30
2023-04-29T09:58:39.467Z,15.20
2023-04-29T10:01:08.664Z,12.80
2023-04-29T10:03:38.923Z,19.20
2023-04-29T10:06:09.304Z,10.00
2023-04-29T10:08:39.408Z,8.00
2023-04-29T10:11:08.420Z,13.10
2023-04-29T10:13:38.949Z,15.50
2023-04-29T10:16:16.292Z,15.80
2023-04-29T10:18:52.722Z,13.40
2023-04-29T10:21:33.241Z,19.10
2023-04-29T10:24:02.827Z,9.30
2023-04-29T10:26:32.455Z,25.80
2023-04-29T10:29:01.519Z,10.70
2023-04-29T10:31:32.117Z,11.00
2023-04-29T10:34:51.387Z,15.00
2023-04-29T10:37:20.557Z,11.30
2023-04-29T10:40:09.245Z,15.90
2023-04-29T10:42:48.885Z,11.40
2023-04-29T10:45:27.862Z,8.60
2023-04-29T10:48:24.879Z,21.40
2023-04-29T10:50:53.206Z,9.20
2023-04-29T10:53:22.499Z,11.40
2023-04-29T10:56:05.734Z,19.70
2023-04-29T10:58:47.473Z,10.40
2023-04-29T11:01:17.827Z,27.70
2023-04-29T11:04:05.077Z,12.20
2023-04-29T11:06:36.979Z,14.90
2023-04-29T11:09:09.953Z,14.80
2023-04-29T11:12:05.790Z,18.10
2023-04-29T11:15:03.357Z,11.20
2023-04-29T11:17:38.886Z,18.30
2023-04-29T11:20:14.171Z,17.10
2023-04-29T11:22:51.654Z,10.90
2023-04-29T11:25:20.116Z,14.90
2023-04-29T11:27:49.985Z,11.70
2023-04-29T11:30:20.131Z,14.50
2023-04-29T11:32:52.568Z,8.20
2023-04-29T11:35:21.762Z,9.50
2023-04-29T11:37:50.336Z,11.60
2023-04-29T11:40:18.659Z,12.40
2023-04-29T11:42:50.797Z,10.30
2023-04-29T11:45:25.443Z,11.70
2023-04-29T11:47:55.659Z,10.30
2023-04-29T11:50:24.520Z,19.20
2023-04-29T11:52:53.390Z,9.60
2023-04-29T11:55:22.387Z,9.70
2023-04-29T11:57:52.681Z,10.30
2023-04-29T12:00:21.963Z,11.10
2023-04-29T12:02:50.387Z,9.80
2023-04-29T12:05:19.837Z,19.40
2023-04-29T12:07:51.505Z,11.50
2023-04-29T12:10:21.382Z,9.80
2023-04-29T12:12:54.273Z,12.90
2023-04-29T12:15:23.414Z,12.50
2023-04-29T12:17:52.434Z,12.80
2023-04-29T12:20:21.446Z,9.60
2023-04-29T12:22:50.313Z,22.50
2023-04-29T12:25:18.693Z,10.30
2023-04-29T12:27:47.011Z,9.80
2023-04-29T12:30:15.382Z,8.00
2023-04-29T12:32:45.573Z,9.10
2023-04-29T12:35:18.234Z,9.10
2023-04-29T12:37:52.997Z,9.40
2023-04-29T12:40:21.468Z,11.10
2023-04-29T12:42:49.821Z,8.30
2023-04-29T12:45:33.490Z,18.90
2023-04-29T12:48:07.165Z,8.30
2023-04-29T12:50:39.457Z,12.10
2023-04-29T12:53:09.837Z,15.20
2023-04-29T12:55:40.443Z,13.40
2023-04-29T12:58:09.865Z,11.10
2023-04-29T13:00:38.402Z,9.80
2023-04-29T13:03:07.923Z,9.10
2023-04-29T13:05:37.272Z,42.90
2023-04-29T13:08:09.281Z,9.20
2023-04-29T13:10:37.770Z,10.10
2023-04-29T13:13:06.162Z,9.60
2023-04-29T13:15:34.673Z,11.50
2023-04-29T13:18:03.413Z,10.30
2023-04-29T13:20:41.114Z,9.50
2023-04-29T13:23:12.679Z,10.50
2023-04-29T13:25:41.217Z,13.40
2023-04-29T13:28:10.003Z,15.90
2023-04-29T13:30:38.354Z,10.90
2023-04-29T13:33:12.321Z,13.40
2023-04-29T13:35:42.193Z,10.70
2023-04-29T13:38:11.596Z,13.00
2023-04-29T13:40:46.102Z,13.30
2023-04-29T13:43:23.415Z,10.70
2023-04-29T13:45:57.852Z,11.70
2023-04-29T13:54:17.374Z,12.00
2023-04-29T13:59:37.304Z,13.70
2023-04-29T14:04:13.563Z,21.40
2023-04-29T14:06:44.480Z,25.90
2023-04-29T14:09:12.922Z,12.20
2023-04-29T14:11:41.672Z,10.80
2023-04-29T14:14:10.330Z,11.20
2023-04-29T14:16:39.194Z,8.90
2023-04-29T14:19:08.068Z,12.00
2023-04-29T14:21:36.387Z,9.50
2023-04-29T14:24:05.016Z,7.70
2023-04-29T14:26:33.655Z,9.20
2023-04-29T14:29:02.002Z,11.90
2023-04-29T14:31:32.462Z,11.00
2023-04-29T14:34:00.986Z,9.50
2023-04-29T14:36:29.476Z,9.50
2023-04-29T14:38:57.884Z,6.20
2023-04-29T14:41:26.336Z,3.70
2023-04-29T14:43:54.854Z,4.50
2023-04-29T14:46:23.761Z,11.20
2023-04-29T14:48:52.283Z,4.40
2023-04-29T14:51:21.219Z,5.60
2023-04-29T14:53:50.372Z,3.80
2023-04-29T14:56:18.804Z,4.90
2023-04-29T14:58:47.204Z,4.80
2023-04-29T15:01:16.037Z,4.80
2023-04-29T15:03:45.409Z,7.20
2023-04-29T15:06:14.952Z,5.30
2023-04-29T15:08:43.506Z,6.10
2023-04-29T15:11:12.596Z,3.40
2023-04-29T15:13:41.065Z,4.40
2023-04-29T15:16:09.602Z,4.50
2023-04-29T15:18:38.814Z,4.30
2023-04-29T15:21:07.925Z,4.60
2023-04-29T15:23:36.753Z,4.60
2023-04-29T15:26:05.555Z,5.60
2023-04-29T15:28:34.180Z,6.20
2023-04-29T15:31:05.130Z,5.50
2023-04-29T15:33:33.641Z,7.80
2023-04-29T15:36:02.088Z,9.60
2023-04-29T15:38:30.497Z,7.80
2023-04-29T15:41:01.754Z,7.20
2023-04-29T15:43:31.947Z,6.80
2023-04-29T15:46:00.604Z,5.00
2023-04-29T15:48:29.883Z,6.70
2023-04-29T15:50:58.186Z,7.70
2023-04-29T15:53:26.564Z,7.20
2023-04-29T15:55:56.022Z,6.20
2023-04-29T15:58:24.403Z,6.70
2023-04-29T16:00:52.888Z,7.80
2023-04-29T16:03:21.541Z,10.60
2023-04-29T16:05:50.450Z,10.40
2023-04-29T16:08:19.549Z,12.80
2023-04-29T16:10:49.938Z,12.90
2023-04-29T16:13:19.433Z,12.90
2023-04-29T16:15:47.920Z,15.70
2023-04-29T16:18:17.735Z,17.20
2023-04-29T16:20:46.178Z,17.80
2023-04-29T16:23:14.578Z,17.10
2023-04-29T16:25:43.657Z,27.20
2023-04-29T16:28:12.137Z,20.50
2023-04-29T16:30:40.619Z,20.80
2023-04-29T16:33:10.002Z,21.60
2023-04-29T16:35:38.850Z,24.70
2023-04-29T16:38:07.667Z,21.10
2023-04-29T16:40:36.021Z,21.70
2023-04-29T16:43:04.486Z,19.70
2023-04-29T16:45:33.083Z,21.20
2023-04-29T16:48:02.174Z,22.30
2023-04-29T16:50:30.927Z,21.50
2023-04-29T16:52:59.871Z,22.70
2023-04-29T16:55:31.076Z,21.70
2023-04-29T16:57:59.620Z,20.70
2023-04-29T17:00:27.963Z,20.80
2023-04-29T17:03:00.297Z,18.20
2023-04-29T17:05:28.860Z,20.50
2023-04-29T17:07:57.179Z,19.20
2023-04-29T17:10:26.186Z,17.40
2023-04-29T17:12:55.065Z,22.40
2023-04-29T17:15:23.510Z,19.70
2023-04-29T17:17:52.029Z,20.30
2023-04-29T17:20:20.943Z,18.20
2023-04-29T17:22:49.653Z,20.10
2023-04-29T17:25:18.504Z,24.50
2023-04-29T17:27:47.678Z,24.70
2023-04-29T17:30:16.136Z,26.70
2023-04-29T17:32:47.273Z,27.80
2023-04-29T17:35:16.453Z,26.70
2023-04-29T17:37:45.492Z,30.00
2023-04-29T17:40:14.330Z,35.60
2023-04-29T17:42:48.445Z,30.30
2023-04-29T17:45:17.548Z,35.50
2023-04-29T17:47:46.291Z,36.50
2023-04-29T17:50:17.525Z,33.70
2023-04-29T17:52:46.935Z,30.90
2023-04-29T17:55:16.844Z,31.80
2023-04-29T17:57:47.147Z,33.80
2023-04-29T18:00:17.235Z,35.10
2023-04-29T18:02:48.268Z,35.90
2023-04-29T18:05:17.634Z,34.90
2023-04-29T18:07:50.542Z,36.80
2023-04-29T18:10:19.282Z,34.90
2023-04-29T18:12:47.809Z,38.50
2023-04-29T18:15:16.934Z,38.30
2023-04-29T18:17:49.688Z,37.90
2023-04-29T18:20:19.903Z,40.90
2023-04-29T18:22:50.735Z,47.40
2023-04-29T18:25:20.356Z,49.10
2023-04-29T18:27:48.791Z,47.00
2023-04-29T18:30:17.253Z,49.10
2023-04-29T18:32:45.778Z,51.80
2023-04-29T18:35:14.409Z,46.40
2023-04-29T18:37:42.899Z,44.40
2023-04-29T18:40:12.204Z,49.50
2023-04-29T18:42:41.268Z,45.50
2023-04-29T18:45:10.696Z,49.10
2023-04-29T18:47:39.610Z,56.00
2023-04-29T18:50:12.685Z,54.10
2023-04-29T18:52:42.075Z,57.70
2023-04-29T18:55:12.018Z,55.70
2023-04-29T18:57:40.741Z,54.60
2023-04-29T19:00:10.400Z,64.10
2023-04-29T19:02:39.050Z,65.50
2023-04-29T19:05:12.986Z,58.40
2023-04-29T19:07:42.233Z,58.30
2023-04-29T19:10:12.124Z,59.30
2023-04-29T19:12:42.567Z,58.30
2023-04-29T19:15:12.487Z,51.90
2023-04-29T19:17:41.418Z,61.80
2023-04-29T19:20:10.976Z,58.10
2023-04-29T19:22:40.102Z,64.50
2023-04-29T19:25:11.150Z,61.30
2023-04-29T19:27:49.357Z,65.90
2023-04-29T19:30:19.253Z,67.10
2023-04-29T19:32:47.928Z,58.90
2023-04-29T19:35:18.223Z,66.10
2023-04-29T19:37:50.160Z,68.80
2023-04-29T19:40:19.046Z,73.20
2023-04-29T19:42:53.890Z,72.60
2023-04-29T19:45:23.302Z,73.80
2023-04-29T19:47:52.367Z,69.30
2023-04-29T19:50:23.009Z,66.00
2023-04-29T19:52:52.167Z,64.90
2023-04-29T19:55:25.163Z,72.40
2023-04-29T19:57:53.582Z,71.80
2023-04-29T20:00:23.897Z,79.20
2023-04-29T20:02:54.008Z,60.00
2023-04-29T20:05:23.329Z,79.90
2023-04-29T20:07:52.875Z,70.90
2023-04-29T20:10:23.023Z,67.10
2023-04-29T20:12:52.020Z,76.90
2023-04-29T20:15:20.637Z,66.10
2023-04-29T20:17:51.058Z,71.10
2023-04-29T20:20:19.528Z,64.10
2023-04-29T20:22:48.507Z,60.10
2023-04-29T20:25:18.060Z,61.60
2023-04-29T20:27:47.858Z,53.40
2023-04-29T20:30:16.195Z,65.50
2023-04-29T20:32:45.035Z,69.00
2023-04-29T20:35:15.040Z,71.50
2023-04-29T20:37:43.624Z,74.70
2023-04-29T20:40:12.245Z,78.50
2023-04-29T20:42:41.991Z,82.20
2023-04-29T20:45:13.012Z,71.40
2023-04-29T20:47:42.386Z,78.90
2023-04-29T20:50:12.229Z,74.90
2023-04-29T20:52:40.899Z,73.00
2023-04-29T20:55:10.309Z,68.70
2023-04-29T20:57:39.959Z,72.90
2023-04-29T21:00:10.059Z,74.70
2023-04-29T21:02:38.826Z,62.20
2023-04-29T21:05:10.024Z,73.10
2023-04-29T21:07:38.654Z,70.90
2023-04-29T21:10:07.444Z,62.70
2023-04-29T21:12:36.293Z,61.70
2023-04-29T21:15:06.452Z,77.60
2023-04-29T21:17:35.419Z,64.10
2023-04-29T21:20:05.385Z,63.10
2023-04-29T21:22:33.694Z,61.00
2023-04-29T21:25:02.125Z,67.10
2023-04-29T21:27:30.588Z,60.10
2023-04-29T21:29:59.137Z,59.00
2023-04-29T21:32:28.332Z,58.20
2023-04-29T21:35:28.221Z,60.10
2023-04-29T21:37:57.761Z,63.10
2023-04-29T21:40:26.933Z,62.90
2023-04-29T21:42:58.469Z,62.70
2023-04-29T21:45:26.822Z,59.40
2023-04-29T21:47:57.648Z,62.60
2023-04-29T21:50:26.379Z,60.20
2023-04-29T21:52:56.004Z,61.20
2023-04-29T21:55:24.499Z,59.50
2023-04-29T21:57:52.838Z,62.50
2023-04-29T22:00:33.423Z,66.90
2023-04-29T22:03:03.631Z,57.00
2023-04-29T22:05:32.654Z,62.30
2023-04-29T22:08:03.422Z,58.80
2023-04-29T22:10:32.381Z,58.00
2023-04-29T22:13:00.838Z,61.30
2023-04-29T22:15:29.764Z,62.30
2023-04-29T22:17:58.636Z,58.20
2023-04-29T22:20:27.552Z,56.50
2023-04-29T22:22:56.698Z,62.60
2023-04-29T22:25:25.056Z,57.80
2023-04-29T22:27:53.499Z,54.30
2023-04-29T22:30:21.858Z,52.20
2023-04-29T22:32:50.345Z,53.00
2023-04-29T22:35:19.109Z,60.60
2023-04-29T22:37:47.675Z,52.00
2023-04-29T22:40:16.000Z,57.30
2023-04-29T22:42:44.695Z,48.40
2023-04-29T22:45:13.521Z,55.80
2023-04-29T22:47:42.369Z,50.50
2023-04-29T22:50:11.202Z,52.00
2023-04-29T22:52:39.980Z,57.00
2023-04-29T22:55:09.625Z,49.40
2023-04-29T22:57:37.971Z,49.10
2023-04-29T23:00:07.298Z,49.40
2023-04-29T23:02:35.685Z,50.90
2023-04-29T23:05:05.080Z,54.10
2023-04-29T23:07:34.114Z,50.90
2023-04-29T23:10:02.521Z,50.70
2023-04-29T23:12:30.897Z,50.40
2023-04-29T23:14:59.312Z,55.00
2023-04-29T23:17:27.791Z,50.90
2023-04-29T23:19:56.269Z,50.60
2023-04-29T23:22:25.117Z,50.30
2023-04-29T23:24:54.493Z,51.40
2023-04-29T23:27:22.957Z,46.90
2023-04-29T23:29:51.340Z,50.00
2023-04-29T23:32:21.008Z,48.60
2023-04-29T23:35:32.712Z,54.50
2023-04-29T23:38:01.118Z,52.10
2023-04-29T23:40:31.184Z,49.10
2023-04-29T23:43:00.181Z,49.80
2023-04-29T23:45:28.607Z,47.00
2023-04-29T23:47:56.944Z,53.70
2023-04-29T23:50:25.359Z,52.80
2023-04-29T23:52:54.254Z,51.70
2023-04-29T23:55:23.057Z,49.50
2023-04-29T23:57:52.232Z,46.10
